createdAt,value
2018-06-24T00:04:24.239Z,97872.86
2018-06-24T00:07:09.284Z,97874.31
2018-06-24T00:09:56.434Z,97872.53
2018-06-24T00:12:35.573Z,97864.54
2018-06-24T00:17:51.496Z,97853.73
2018-06-24T00:20:31.657Z,97847.80
2018-06-24T00:23:08.780Z,97845.52
2018-06-24T00:25:50.647Z,97855.11
2018-06-24T00:28:32.413Z,97858.65
2018-06-24T00:37:18.068Z,97849.27
2018-06-24T00:39:47.610Z,97845.52
2018-06-24T00:42:17.260Z,97845.14
2018-06-24T00:44:46.901Z,97839.80
2018-06-24T00:47:16.500Z,97838.38
2018-06-24T00:49:46.072Z,97837.37
2018-06-24T00:52:18.842Z,97837.20
2018-06-24T00:54:48.574Z,97834.23
2018-06-24T00:57:21.381Z,97831.38
2018-06-24T01:00:03.260Z,97826.38
2018-06-24T01:02:32.876Z,97825.70
2018-06-24T01:05:02.695Z,97826.14
2018-06-24T01:07:32.356Z,97827.27
2018-06-24T01:10:08.706Z,97825.26
2018-06-24T01:12:38.438Z,97826.85
2018-06-24T01:15:08.242Z,97822.56
2018-06-24T01:17:38.173Z,97826.78
2018-06-24T01:20:07.859Z,97829.13
2018-06-24T01:22:38.744Z,97826.32
2018-06-24T01:25:08.388Z,97829.97
2018-06-24T01:27:38.906Z,97828.28
2018-06-24T01:30:08.518Z,97831.69
2018-06-24T01:32:38.095Z,97830.71
2018-06-24T01:35:07.788Z,97823.92
2018-06-24T01:37:38.291Z,97829.53
2018-06-24T01:40:08.000Z,97821.63
2018-06-24T01:42:37.653Z,97823.91
2018-06-24T01:45:07.358Z,97820.50
2018-06-24T01:47:37.142Z,97813.08
2018-06-24T01:50:06.986Z,97812.37
2018-06-24T01:52:37.865Z,97813.98
2018-06-24T01:55:07.574Z,97815.30
2018-06-24T01:57:37.232Z,97808.39
2018-06-24T02:00:07.740Z,97804.03
2018-06-24T02:02:37.655Z,97801.22
2018-06-24T02:05:07.744Z,97799.72
2018-06-24T02:07:38.083Z,97795.17
2018-06-24T02:10:07.997Z,97797.85
2018-06-24T02:12:38.357Z,97799.33
2018-06-24T02:15:08.086Z,97794.39
2018-06-24T02:17:38.221Z,97795.70
2018-06-24T02:20:07.859Z,97790.61
2018-06-24T02:22:38.214Z,97799.55
2018-06-24T02:25:07.813Z,97800.00
2018-06-24T02:27:37.481Z,97802.17
2018-06-24T02:30:07.165Z,97794.73
2018-06-24T02:32:37.044Z,97796.98
2018-06-24T02:35:06.691Z,97784.27
2018-06-24T02:37:36.383Z,97787.26
2018-06-24T02:40:06.070Z,97784.87
2018-06-24T02:42:37.382Z,97787.55
2018-06-24T02:45:07.497Z,97789.39
2018-06-24T02:47:37.177Z,97788.41
2018-06-24T02:50:07.964Z,97785.02
2018-06-24T02:52:39.880Z,97777.94
2018-06-24T02:55:09.966Z,97771.30
2018-06-24T02:57:39.617Z,97774.13
2018-06-24T03:00:09.390Z,97781.22
2018-06-24T03:05:15.433Z,97778.04
2018-06-24T03:07:45.150Z,97779.73
2018-06-24T03:10:14.839Z,97783.10
2018-06-24T03:12:45.705Z,97777.12
2018-06-24T03:15:15.785Z,97774.91
2018-06-24T03:17:45.545Z,97777.63
2018-06-24T03:20:15.773Z,97775.91
2018-06-24T03:22:51.146Z,97771.78
2018-06-24T03:25:21.726Z,97774.19
2018-06-24T03:27:51.335Z,97767.77
2018-06-24T03:30:21.988Z,97770.13
2018-06-24T03:32:51.885Z,97773.24
2018-06-24T03:37:56.919Z,97775.54
2018-06-24T03:40:26.650Z,97784.86
2018-06-24T03:42:57.342Z,97780.22
2018-06-24T03:45:27.153Z,97783.45
2018-06-24T03:47:56.777Z,97782.24
2018-06-24T03:50:27.705Z,97784.84
2018-06-24T03:53:01.011Z,97793.13
2018-06-24T03:55:30.868Z,97785.39
2018-06-24T03:58:00.598Z,97789.95
2018-06-24T04:00:30.242Z,97785.67
2018-06-24T04:03:02.764Z,97794.02
2018-06-24T04:05:33.108Z,97799.91
2018-06-24T04:08:02.875Z,97798.20
2018-06-24T04:10:32.503Z,97801.69
2018-06-24T04:13:03.626Z,97796.64
2018-06-24T04:15:34.089Z,97797.00
2018-06-24T04:20:39.061Z,97798.20
2018-06-24T04:23:10.096Z,97803.06
2018-06-24T04:25:39.777Z,97797.47
2018-06-24T04:28:09.422Z,97801.37
2018-06-24T04:30:39.086Z,97798.20
2018-06-24T04:35:45.553Z,97807.78
2018-06-24T04:38:15.857Z,97810.34
2018-06-24T04:40:45.480Z,97797.38
2018-06-24T04:43:15.979Z,97794.94
2018-06-24T04:45:45.676Z,97799.91
2018-06-24T04:48:15.348Z,97799.44
2018-06-24T04:50:45.016Z,97805.75
2018-06-24T04:53:16.285Z,97814.69
2018-06-24T04:55:46.674Z,97809.25
2018-06-24T04:58:16.380Z,97808.06
2018-06-24T05:00:46.540Z,97808.09
2018-06-24T05:03:16.769Z,97808.38
2018-06-24T05:05:46.460Z,97810.31
2018-06-24T05:08:16.144Z,97812.06
2018-06-24T05:10:46.153Z,97809.78
2018-06-24T05:13:15.799Z,97809.78
2018-06-24T05:15:46.293Z,97811.89
2018-06-24T05:18:15.928Z,97805.26
2018-06-24T05:20:45.877Z,97807.05
2018-06-24T05:23:15.597Z,97806.87
2018-06-24T05:25:45.289Z,97808.97
2018-06-24T05:28:14.982Z,97805.20
2018-06-24T05:30:44.677Z,97807.18
2018-06-24T05:33:14.571Z,97807.13
2018-06-24T05:35:44.289Z,97802.95
2018-06-24T05:38:13.996Z,97804.00
2018-06-24T05:40:43.901Z,97803.55
2018-06-24T05:43:13.617Z,97811.06
2018-06-24T05:45:43.437Z,97815.91
2018-06-24T05:48:13.112Z,97805.84
2018-06-24T05:50:42.807Z,97807.27
2018-06-24T05:53:12.450Z,97799.74
2018-06-24T05:55:42.075Z,97799.68
2018-06-24T05:58:11.937Z,97801.77
2018-06-24T06:00:41.561Z,97797.83
2018-06-24T06:03:11.772Z,97803.78
2018-06-24T06:05:41.402Z,97793.75
2018-06-24T06:08:11.112Z,97796.30
2018-06-24T06:10:40.957Z,97796.77
2018-06-24T06:13:10.630Z,97792.27
2018-06-24T06:15:40.236Z,97800.95
2018-06-24T06:18:10.601Z,97801.48
2018-06-24T06:23:15.621Z,97806.44
2018-06-24T06:25:45.270Z,97802.83
2018-06-24T06:28:17.250Z,97809.89
2018-06-24T06:30:49.393Z,97806.72
2018-06-24T06:33:20.070Z,97792.97
2018-06-24T06:35:49.802Z,97790.14
2018-06-24T06:38:19.477Z,97788.01
2018-06-24T06:40:53.657Z,97796.67
2018-06-24T06:43:24.798Z,97799.36
2018-06-24T06:45:55.825Z,97799.94
2018-06-24T06:48:25.508Z,97807.29
2018-06-24T06:50:57.549Z,97811.63
2018-06-24T06:53:28.073Z,97808.43
2018-06-24T06:55:58.097Z,97804.86
2018-06-24T06:58:29.152Z,97802.88
2018-06-24T07:00:59.580Z,97799.24
2018-06-24T07:03:29.218Z,97798.91
2018-06-24T07:05:59.577Z,97795.95
2018-06-24T07:08:29.352Z,97789.22
2018-06-24T07:10:59.112Z,97792.95
2018-06-24T07:13:28.906Z,97796.12
2018-06-24T07:15:58.545Z,97793.80
2018-06-24T07:18:28.304Z,97793.66
2018-06-24T07:23:35.940Z,97791.53
2018-06-24T07:28:42.261Z,97789.58
2018-06-24T07:31:12.300Z,97791.63
2018-06-24T07:33:42.778Z,97791.58
2018-06-24T07:36:13.125Z,97788.41
2018-06-24T07:38:43.990Z,97793.55
2018-06-24T07:41:15.046Z,97799.45
2018-06-24T07:43:45.821Z,97799.06
2018-06-24T07:46:15.684Z,97795.47
2018-06-24T07:48:45.713Z,97792.02
2018-06-24T07:51:16.741Z,97791.36
2018-06-24T07:53:48.480Z,97786.90
2018-06-24T07:56:19.585Z,97781.69
2018-06-24T07:58:50.492Z,97786.20
2018-06-24T08:01:20.048Z,97780.02
2018-06-24T08:03:50.318Z,97777.86
2018-06-24T08:08:56.097Z,97777.45
2018-06-24T08:11:26.789Z,97777.59
2018-06-24T08:13:57.856Z,97782.69
2018-06-24T08:16:29.695Z,97776.45
2018-06-24T08:19:01.783Z,97774.09
2018-06-24T08:21:31.410Z,97769.81
2018-06-24T08:24:02.681Z,97769.95
2018-06-24T08:26:33.841Z,97769.03
2018-06-24T08:29:04.554Z,97767.95
2018-06-24T08:31:35.769Z,97766.95
2018-06-24T08:36:43.324Z,97774.85
2018-06-24T08:39:13.313Z,97779.77
2018-06-24T08:41:43.556Z,97772.31
2018-06-24T08:44:14.199Z,97778.03
2018-06-24T08:46:44.890Z,97779.84
2018-06-24T08:49:14.817Z,97775.84
2018-06-24T08:51:45.170Z,97771.44
2018-06-24T08:54:15.468Z,97772.51
2018-06-24T08:56:46.254Z,97775.16
2018-06-24T08:59:16.332Z,97774.61
2018-06-24T09:01:46.525Z,97775.56
2018-06-24T09:04:16.865Z,97774.59
2018-06-24T09:06:47.041Z,97776.10
2018-06-24T09:09:17.165Z,97773.06
2018-06-24T09:11:47.580Z,97772.03
2018-06-24T09:14:19.891Z,97776.48
2018-06-24T09:16:50.249Z,97771.46
2018-06-24T09:19:20.879Z,97777.83
2018-06-24T09:21:53.068Z,97777.13
2018-06-24T09:24:24.132Z,97772.42
2018-06-24T09:26:53.849Z,97768.16
2018-06-24T09:29:24.501Z,97770.91
2018-06-24T09:31:56.018Z,97775.62
2018-06-24T09:34:26.077Z,97773.28
2018-06-24T09:36:56.072Z,97770.02
2018-06-24T09:39:26.425Z,97771.58
2018-06-24T09:41:56.137Z,97771.31
2018-06-24T09:44:26.101Z,97761.58
2018-06-24T09:46:56.241Z,97757.08
2018-06-24T09:49:26.084Z,97761.91
2018-06-24T09:51:56.279Z,97758.09
2018-06-24T09:54:26.208Z,97762.13
2018-06-24T09:57:05.871Z,97765.88
2018-06-24T09:59:36.581Z,97762.55
2018-06-24T10:02:07.070Z,97758.52
2018-06-24T10:04:38.016Z,97759.27
2018-06-24T10:07:09.348Z,97749.39
2018-06-24T10:09:39.008Z,97756.78
2018-06-24T10:12:09.411Z,97754.97
2018-06-24T10:14:39.789Z,97747.41
2018-06-24T10:17:10.141Z,97751.33
2018-06-24T10:19:40.085Z,97751.97
2018-06-24T10:22:09.965Z,97739.97
2018-06-24T10:24:39.994Z,97734.53
2018-06-24T10:27:10.548Z,97726.47
2018-06-24T10:29:40.442Z,97728.38
2018-06-24T10:32:10.059Z,97727.34
2018-06-24T10:34:40.395Z,97723.38
2018-06-24T10:37:10.236Z,97722.13
2018-06-24T10:39:40.369Z,97719.58
2018-06-24T10:42:10.683Z,97714.09
2018-06-24T10:44:41.288Z,97709.34
2018-06-24T10:47:12.285Z,97707.37
2018-06-24T10:49:42.800Z,97701.49
2018-06-24T10:52:13.241Z,97701.31
2018-06-24T10:54:43.776Z,97689.75
2018-06-24T10:57:14.283Z,97687.93
2018-06-24T10:59:46.041Z,97680.19
2018-06-24T11:02:17.619Z,97693.47
2018-06-24T11:04:49.994Z,97685.82
2018-06-24T11:07:21.068Z,97689.42
2018-06-24T11:09:51.456Z,97686.22
2018-06-24T11:12:21.831Z,97680.88
2018-06-24T11:14:52.409Z,97680.80
2018-06-24T11:17:22.443Z,97680.34
2018-06-24T11:19:52.582Z,97677.19
2018-06-24T11:22:22.706Z,97668.39
2018-06-24T11:27:29.943Z,97673.91
2018-06-24T11:29:59.853Z,97675.71
2018-06-24T11:32:30.521Z,97679.00
2018-06-24T11:35:00.264Z,97664.36
2018-06-24T11:37:32.229Z,97655.47
2018-06-24T11:40:01.910Z,97653.14
2018-06-24T11:42:31.579Z,97656.35
2018-06-24T11:45:01.905Z,97659.39
2018-06-24T11:47:31.654Z,97656.96
2018-06-24T11:50:02.136Z,97660.99
2018-06-24T11:52:32.167Z,97666.63
2018-06-24T11:55:05.640Z,97662.81
2018-06-24T11:57:35.459Z,97660.96
2018-06-24T12:00:06.993Z,97653.76
2018-06-24T12:02:37.254Z,97653.66
2018-06-24T12:05:06.931Z,97649.27
2018-06-24T12:07:36.568Z,97645.31
2018-06-24T12:10:07.076Z,97638.31
2018-06-24T12:15:12.570Z,97639.16
2018-06-24T12:17:42.165Z,97632.97
2018-06-24T12:20:11.889Z,97625.32
2018-06-24T12:22:44.964Z,97626.87
2018-06-24T12:25:14.841Z,97633.31
2018-06-24T12:27:44.501Z,97631.33
2018-06-24T12:30:14.171Z,97630.94
2018-06-24T12:32:43.933Z,97629.95
2018-06-24T12:35:13.683Z,97633.99
2018-06-24T12:37:43.354Z,97631.30
2018-06-24T12:40:23.798Z,97626.77
2018-06-24T12:42:53.597Z,97627.22
2018-06-24T12:45:23.434Z,97619.17
2018-06-24T12:47:53.124Z,97623.60
2018-06-24T12:50:23.058Z,97618.59
2018-06-24T12:52:53.078Z,97619.40
2018-06-24T12:55:22.730Z,97613.89
2018-06-24T12:57:52.513Z,97605.43
2018-06-24T13:00:22.650Z,97608.42
2018-06-24T13:02:51.914Z,97611.91
2018-06-24T13:05:21.545Z,97605.94
2018-06-24T13:07:51.243Z,97605.58
2018-06-24T13:10:20.853Z,97612.34
2018-06-24T13:12:50.466Z,97607.11
2018-06-24T13:15:20.376Z,97606.92
2018-06-24T13:17:49.979Z,97602.79
2018-06-24T13:20:19.620Z,97605.25
2018-06-24T13:22:49.243Z,97597.94
2018-06-24T13:25:19.433Z,97599.21
2018-06-24T13:27:49.095Z,97603.77
2018-06-24T13:30:18.751Z,97594.44
2018-06-24T13:32:48.375Z,97587.67
2018-06-24T13:35:18.258Z,97576.13
2018-06-24T13:37:48.095Z,97573.20
2018-06-24T13:40:17.847Z,97571.60
2018-06-24T13:42:47.521Z,97566.21
2018-06-24T13:45:17.177Z,97566.48
2018-06-24T13:47:46.865Z,97561.11
2018-06-24T13:50:16.790Z,97572.41
2018-06-24T13:52:47.065Z,97564.92
2018-06-24T13:55:16.693Z,97568.91
2018-06-24T13:57:46.288Z,97567.31
2018-06-24T14:00:22.018Z,97557.06
2018-06-24T14:02:51.829Z,97568.41
2018-06-24T14:05:21.457Z,97565.58
2018-06-24T14:07:51.288Z,97567.81
2018-06-24T14:10:21.028Z,97578.03
2018-06-24T14:12:52.327Z,97573.07
2018-06-24T14:15:22.703Z,97571.81
2018-06-24T14:17:52.465Z,97566.83
2018-06-24T14:20:22.306Z,97572.02
2018-06-24T14:22:52.009Z,97578.59
2018-06-24T14:25:21.869Z,97579.78
2018-06-24T14:27:52.577Z,97575.05
2018-06-24T14:30:22.219Z,97580.77
2018-06-24T14:32:52.036Z,97571.25
2018-06-24T14:35:21.669Z,97578.91
2018-06-24T14:37:51.412Z,97578.44
2018-06-24T14:40:21.322Z,97580.19
2018-06-24T14:42:50.959Z,97572.25
2018-06-24T14:45:20.622Z,97574.28
2018-06-24T14:47:50.262Z,97574.52
2018-06-24T14:50:19.951Z,97565.83
2018-06-24T14:52:49.639Z,97570.11
2018-06-24T14:57:54.690Z,97564.01
2018-06-24T15:00:24.277Z,97562.20
2018-06-24T15:02:54.164Z,97567.56
2018-06-24T15:05:24.513Z,97562.17
2018-06-24T15:07:54.238Z,97561.54
2018-06-24T15:10:24.013Z,97558.62
2018-06-24T15:12:53.945Z,97558.04
2018-06-24T15:15:23.778Z,97554.64
2018-06-24T15:17:53.509Z,97545.33
2018-06-24T15:20:23.212Z,97550.80
2018-06-24T15:22:52.793Z,97548.09
2018-06-24T15:25:22.385Z,97542.06
2018-06-24T15:27:52.029Z,97541.37
2018-06-24T15:30:21.734Z,97541.41
2018-06-24T15:32:51.723Z,97544.47
2018-06-24T15:35:21.389Z,97544.83
2018-06-24T15:37:51.101Z,97542.38
2018-06-24T15:40:20.877Z,97543.54
2018-06-24T15:42:56.948Z,97545.75
2018-06-24T15:45:26.756Z,97547.02
2018-06-24T15:47:56.571Z,97537.98
2018-06-24T15:50:26.217Z,97541.62
2018-06-24T15:52:55.848Z,97545.52
2018-06-24T15:55:25.438Z,97541.72
2018-06-24T15:57:55.316Z,97542.29
2018-06-24T16:00:25.284Z,97538.03
2018-06-24T16:02:55.100Z,97542.53
2018-06-24T16:05:24.768Z,97547.27
2018-06-24T16:07:54.386Z,97552.15
2018-06-24T16:10:24.013Z,97556.44
2018-06-24T16:12:53.644Z,97550.69
2018-06-24T16:15:23.296Z,97556.59
2018-06-24T16:17:52.936Z,97547.52
2018-06-24T16:20:22.653Z,97554.58
2018-06-24T16:22:52.392Z,97548.11
2018-06-24T16:25:21.842Z,97542.73
2018-06-24T16:27:51.551Z,97547.31
2018-06-24T16:30:21.109Z,97562.86
2018-06-24T16:32:51.940Z,97560.19
2018-06-24T16:35:21.713Z,97545.45
2018-06-24T16:37:51.379Z,97547.88
2018-06-24T16:40:21.021Z,97555.37
2018-06-24T16:42:50.639Z,97559.89
2018-06-24T16:45:20.377Z,97561.52
2018-06-24T16:47:50.073Z,97557.21
2018-06-24T16:50:19.688Z,97553.95
2018-06-24T16:52:49.477Z,97558.48
2018-06-24T16:55:19.196Z,97559.30
2018-06-24T16:57:48.820Z,97563.09
2018-06-24T17:00:18.383Z,97554.26
2018-06-24T17:02:48.279Z,97564.76
2018-06-24T17:05:17.863Z,97566.09
2018-06-24T17:07:47.669Z,97560.36
2018-06-24T17:10:17.494Z,97561.06
2018-06-24T17:12:47.292Z,97560.50
2018-06-24T17:15:16.989Z,97563.42
2018-06-24T17:17:46.608Z,97564.47
2018-06-24T17:20:16.356Z,97562.02
2018-06-24T17:22:46.477Z,97571.47
2018-06-24T17:25:16.034Z,97569.03
2018-06-24T17:27:45.821Z,97575.75
2018-06-24T17:30:18.603Z,97571.59
2018-06-24T17:32:48.280Z,97575.39
2018-06-24T17:35:18.044Z,97574.55
2018-06-24T17:40:23.450Z,97579.70
2018-06-24T17:42:53.319Z,97579.45
2018-06-24T17:45:22.996Z,97580.56
2018-06-24T17:50:32.128Z,97582.40
2018-06-24T17:53:02.351Z,97582.48
2018-06-24T17:55:32.152Z,97585.87
2018-06-24T17:58:02.392Z,97579.72
2018-06-24T18:00:33.106Z,97586.51
2018-06-24T18:03:02.753Z,97585.19
2018-06-24T18:05:32.670Z,97590.28
2018-06-24T18:08:02.827Z,97584.72
2018-06-24T18:10:32.441Z,97587.82
2018-06-24T18:13:02.158Z,97591.10
2018-06-24T18:15:31.990Z,97585.54
2018-06-24T18:18:01.728Z,97590.86
2018-06-24T18:20:32.416Z,97588.45
2018-06-24T18:23:02.085Z,97589.00
2018-06-24T18:25:33.104Z,97594.98
2018-06-24T18:28:04.001Z,97587.68
2018-06-24T18:30:34.526Z,97594.83
2018-06-24T18:33:04.925Z,97589.70
2018-06-24T18:35:35.125Z,97589.16
2018-06-24T18:38:04.991Z,97589.41
2018-06-24T18:40:34.805Z,97595.30
2018-06-24T18:43:04.518Z,97599.53
2018-06-24T18:45:34.161Z,97603.15
2018-06-24T18:48:04.840Z,97607.05
2018-06-24T18:50:34.653Z,97600.61
2018-06-24T18:58:15.801Z,97616.83
2018-06-24T19:00:45.595Z,97616.73
2018-06-24T19:03:15.380Z,97614.95
2018-06-24T19:05:45.069Z,97620.70
2018-06-24T19:08:14.852Z,97622.75
2018-06-24T19:10:44.576Z,97619.10
2018-06-24T19:13:14.203Z,97624.31
2018-06-24T19:15:44.013Z,97620.00
2018-06-24T19:18:14.129Z,97624.13
2018-06-24T19:20:43.783Z,97624.35
2018-06-24T19:23:14.160Z,97626.56
2018-06-24T19:25:43.973Z,97631.52
2018-06-24T19:28:14.779Z,97626.61
2018-06-24T19:30:44.632Z,97628.74
2018-06-24T19:33:14.275Z,97636.23
2018-06-24T19:35:43.905Z,97643.40
2018-06-24T19:38:13.524Z,97638.67
2018-06-24T19:40:43.264Z,97640.20
2018-06-24T19:43:13.179Z,97639.23
2018-06-24T19:45:42.807Z,97637.56
2018-06-24T19:48:15.914Z,97643.37
2018-06-24T19:50:45.809Z,97642.05
2018-06-24T19:53:15.452Z,97645.94
2018-06-24T20:00:58.813Z,97649.37
2018-06-24T20:03:28.477Z,97645.32
2018-06-24T20:05:58.275Z,97643.94
2018-06-24T20:08:28.014Z,97640.02
2018-06-24T20:10:57.741Z,97651.68
2018-06-24T20:13:28.036Z,97648.25
2018-06-24T20:16:01.516Z,97649.67
2018-06-24T20:18:31.612Z,97655.76
2018-06-24T20:21:02.221Z,97651.50
2018-06-24T20:23:34.958Z,97647.75
2018-06-24T20:26:05.215Z,97650.91
2018-06-24T20:28:34.908Z,97653.04
2018-06-24T20:31:05.440Z,97658.59
2018-06-24T20:33:35.988Z,97664.55
2018-06-24T20:36:05.872Z,97664.32
2018-06-24T20:38:35.598Z,97660.86
2018-06-24T20:41:06.484Z,97657.83
2018-06-24T20:43:37.977Z,97654.33
2018-06-24T20:46:07.607Z,97660.45
2018-06-24T20:48:37.207Z,97659.06
2018-06-24T20:51:07.478Z,97661.42
2018-06-24T20:53:37.173Z,97661.42
2018-06-24T20:56:07.509Z,97659.06
2018-06-24T20:58:37.596Z,97658.81
2018-06-24T21:01:07.964Z,97655.36
2018-06-24T21:03:37.743Z,97662.11
2018-06-24T21:06:12.228Z,97660.11
2018-06-24T21:08:42.007Z,97660.98
2018-06-24T21:11:11.605Z,97656.34
2018-06-24T21:13:41.914Z,97656.20
2018-06-24T21:16:12.397Z,97655.92
2018-06-24T21:18:43.968Z,97657.30
2018-06-24T21:21:14.624Z,97652.30
2018-06-24T21:28:55.604Z,97643.71
2018-06-24T21:31:25.208Z,97648.78
2018-06-24T21:33:54.887Z,97644.95
2018-06-24T21:36:24.670Z,97649.30
2018-06-24T21:38:54.329Z,97649.25
2018-06-24T21:41:24.009Z,97645.53
2018-06-24T21:43:53.629Z,97645.58
2018-06-24T21:46:23.293Z,97650.33
2018-06-24T21:48:52.986Z,97654.77
2018-06-24T21:51:22.593Z,97660.30
2018-06-24T21:53:52.293Z,97661.26
2018-06-24T21:56:21.858Z,97661.02
2018-06-24T21:58:51.804Z,97657.70
2018-06-24T22:01:21.416Z,97654.35
2018-06-24T22:03:51.072Z,97653.25
2018-06-24T22:06:20.681Z,97648.19
2018-06-24T22:08:50.295Z,97642.80
2018-06-24T22:11:19.920Z,97640.67
2018-06-24T22:13:49.590Z,97647.52
2018-06-24T22:16:19.573Z,97646.37
2018-06-24T22:18:49.160Z,97647.67
2018-06-24T22:21:18.808Z,97654.64
2018-06-24T22:23:49.284Z,97648.33
2018-06-24T22:26:18.919Z,97649.55
2018-06-24T22:28:51.198Z,97659.16
2018-06-24T22:31:21.152Z,97659.78
2018-06-24T22:33:52.229Z,97663.51
2018-06-24T22:36:22.040Z,97661.94
2018-06-24T22:38:51.764Z,97661.52
2018-06-24T22:41:21.549Z,97668.44
2018-06-24T22:43:51.241Z,97669.83
2018-06-24T22:46:20.822Z,97669.70
2018-06-24T22:48:50.494Z,97672.19
2018-06-24T22:53:56.630Z,97672.30
2018-06-24T22:56:26.261Z,97679.12
2018-06-24T22:59:10.593Z,97684.44
2018-06-24T23:01:40.184Z,97680.42
2018-06-24T23:04:09.718Z,97685.44
2018-06-24T23:06:39.328Z,97681.44
2018-06-24T23:09:09.183Z,97681.97
2018-06-24T23:11:38.745Z,97679.09
2018-06-24T23:14:08.426Z,97675.09
2018-06-24T23:16:38.372Z,97676.77
2018-06-24T23:19:08.022Z,97676.34
2018-06-24T23:21:37.767Z,97674.54
2018-06-24T23:24:07.344Z,97670.71
2018-06-24T23:29:11.953Z,97672.83
2018-06-24T23:31:41.525Z,97672.56
2018-06-24T23:34:11.175Z,97669.31
2018-06-24T23:36:40.879Z,97665.88
2018-06-24T23:39:10.740Z,97671.94
2018-06-24T23:46:51.186Z,97661.78
2018-06-24T23:49:20.840Z,97659.78
2018-06-24T23:51:50.430Z,97658.00
2018-06-24T23:54:20.124Z,97656.91
2018-06-24T23:56:49.897Z,97653.70
2018-06-24T23:59:19.497Z,97658.45
